sensor_id;sensor_type;location;lat;lon;timestamp;temperature;humidity
45008;DHT22;30743;52.008;5.644;2024-03-02T00:00:07;11.50;99.90
45008;DHT22;30743;52.008;5.644;2024-03-02T00:02:44;11.40;99.90
45008;DHT22;30743;52.008;5.644;2024-03-02T00:05:12;11.40;99.90
45008;DHT22;30743;52.008;5.644;2024-03-02T00:07:41;11.50;99.90
45008;DHT22;30743;52.008;5.644;2024-03-02T00:10:09;11.70;99.90
45008;DHT22;30743;52.008;5.644;2024-03-02T00:12:38;11.60;99.90
45008;DHT22;30743;52.008;5.644;2024-03-02T00:17:56;11.80;99.90
45008;DHT22;30743;52.008;5.644;2024-03-02T00:20:22;12.00;99.90
45008;DHT22;30743;52.008;5.644;2024-03-02T00:22:49;11.80;99.90
45008;DHT22;30743;52.008;5.644;2024-03-02T00:25:16;11.70;99.90
45008;DHT22;30743;52.008;5.644;2024-03-02T00:27:41;11.70;99.90
45008;DHT22;30743;52.008;5.644;2024-03-02T00:33:01;11.70;99.90
45008;DHT22;30743;52.008;5.644;2024-03-02T00:35:27;11.80;99.90
45008;DHT22;30743;52.008;5.644;2024-03-02T00:37:52;11.80;99.90
45008;DHT22;30743;52.008;5.644;2024-03-02T00:40:18;11.70;99.90
45008;DHT22;30743;52.008;5.644;2024-03-02T00:42:44;11.80;99.90
45008;DHT22;30743;52.008;5.644;2024-03-02T00:45:10;11.90;99.90
45008;DHT22;30743;52.008;5.644;2024-03-02T00:47:39;11.90;99.90
45008;DHT22;30743;52.008;5.644;2024-03-02T00:50:05;11.70;99.90
45008;DHT22;30743;52.008;5.644;2024-03-02T00:52:31;11.60;99.90
45008;DHT22;30743;52.008;5.644;2024-03-02T00:54:58;11.60;99.90
45008;DHT22;30743;52.008;5.644;2024-03-02T00:57:24;11.60;99.90
45008;DHT22;30743;52.008;5.644;2024-03-02T00:59:51;11.80;99.90
45008;DHT22;30743;52.008;5.644;2024-03-02T01:02:17;11.80;99.90
45008;DHT22;30743;52.008;5.644;2024-03-02T01:04:45;11.60;99.90
45008;DHT22;30743;52.008;5.644;2024-03-02T01:07:11;11.40;99.90
45008;DHT22;30743;52.008;5.644;2024-03-02T01:09:36;11.50;99.90
45008;DHT22;30743;52.008;5.644;2024-03-02T01:12:02;11.60;99.90
45008;DHT22;30743;52.008;5.644;2024-03-02T01:14:28;11.90;99.90
45008;DHT22;30743;52.008;5.644;2024-03-02T01:16:53;12.00;99.90
45008;DHT22;30743;52.008;5.644;2024-03-02T01:19:19;12.00;99.90
45008;DHT22;30743;52.008;5.644;2024-03-02T01:21:44;11.70;99.90
45008;DHT22;30743;52.008;5.644;2024-03-02T01:24:10;11.50;99.90
45008;DHT22;30743;52.008;5.644;2024-03-02T01:26:36;11.50;99.90
45008;DHT22;30743;52.008;5.644;2024-03-02T01:29:01;11.30;99.90
45008;DHT22;30743;52.008;5.644;2024-03-02T01:31:27;11.20;99.90
45008;DHT22;30743;52.008;5.644;2024-03-02T01:33:52;11.30;99.90
45008;DHT22;30743;52.008;5.644;2024-03-02T01:36:18;11.40;99.90
45008;DHT22;30743;52.008;5.644;2024-03-02T01:38:43;11.30;99.90
45008;DHT22;30743;52.008;5.644;2024-03-02T01:41:09;11.20;99.90
45008;DHT22;30743;52.008;5.644;2024-03-02T01:43:34;11.40;99.90
45008;DHT22;30743;52.008;5.644;2024-03-02T01:46:00;11.50;99.90
45008;DHT22;30743;52.008;5.644;2024-03-02T01:48:26;11.20;99.90
45008;DHT22;30743;52.008;5.644;2024-03-02T01:50:51;11.10;99.90
45008;DHT22;30743;52.008;5.644;2024-03-02T01:53:17;11.10;99.90
45008;DHT22;30743;52.008;5.644;2024-03-02T01:55:43;11.20;99.90
45008;DHT22;30743;52.008;5.644;2024-03-02T01:58:08;11.20;99.90
45008;DHT22;30743;52.008;5.644;2024-03-02T02:00:34;11.30;99.90
45008;DHT22;30743;52.008;5.644;2024-03-02T02:03:01;11.20;99.90
45008;DHT22;30743;52.008;5.644;2024-03-02T02:05:26;11.40;99.90
45008;DHT22;30743;52.008;5.644;2024-03-02T02:07:52;11.50;99.90
45008;DHT22;30743;52.008;5.644;2024-03-02T02:10:17;11.60;99.90
45008;DHT22;30743;52.008;5.644;2024-03-02T02:12:43;11.40;99.90
45008;DHT22;30743;52.008;5.644;2024-03-02T02:15:30;11.40;99.90
45008;DHT22;30743;52.008;5.644;2024-03-02T02:17:57;11.60;99.90
45008;DHT22;30743;52.008;5.644;2024-03-02T02:20:22;11.50;99.90
45008;DHT22;30743;52.008;5.644;2024-03-02T02:22:59;11.40;99.90
45008;DHT22;30743;52.008;5.644;2024-03-02T02:25:24;11.30;99.90
45008;DHT22;30743;52.008;5.644;2024-03-02T02:27:51;11.40;99.90
45008;DHT22;30743;52.008;5.644;2024-03-02T02:30:25;11.20;99.90
45008;DHT22;30743;52.008;5.644;2024-03-02T02:32:50;11.00;99.90
45008;DHT22;30743;52.008;5.644;2024-03-02T02:35:16;11.10;99.90
45008;DHT22;30743;52.008;5.644;2024-03-02T02:37:42;11.20;99.90
45008;DHT22;30743;52.008;5.644;2024-03-02T02:40:08;11.20;99.90
45008;DHT22;30743;52.008;5.644;2024-03-02T02:42:34;11.30;99.90
45008;DHT22;30743;52.008;5.644;2024-03-02T02:45:00;11.30;99.90
45008;DHT22;30743;52.008;5.644;2024-03-02T02:47:25;11.30;99.90
45008;DHT22;30743;52.008;5.644;2024-03-02T02:49:51;11.30;99.90
45008;DHT22;30743;52.008;5.644;2024-03-02T02:52:17;11.30;99.90
45008;DHT22;30743;52.008;5.644;2024-03-02T02:54:43;11.50;99.90
45008;DHT22;30743;52.008;5.644;2024-03-02T02:57:09;11.30;99.90
45008;DHT22;30743;52.008;5.644;2024-03-02T02:59:35;11.40;99.90
45008;DHT22;30743;52.008;5.644;2024-03-02T03:02:01;11.60;99.90
45008;DHT22;30743;52.008;5.644;2024-03-02T03:04:26;11.60;99.90
45008;DHT22;30743;52.008;5.644;2024-03-02T03:06:52;11.60;99.90
45008;DHT22;30743;52.008;5.644;2024-03-02T03:09:18;11.60;99.90
45008;DHT22;30743;52.008;5.644;2024-03-02T03:11:43;11.70;99.90
45008;DHT22;30743;52.008;5.644;2024-03-02T03:14:09;11.50;99.90
45008;DHT22;30743;52.008;5.644;2024-03-02T03:16:35;11.50;99.90
45008;DHT22;30743;52.008;5.644;2024-03-02T03:19:01;11.40;99.90
45008;DHT22;30743;52.008;5.644;2024-03-02T03:21:26;11.40;99.90
45008;DHT22;30743;52.008;5.644;2024-03-02T03:23:52;11.20;99.90
45008;DHT22;30743;52.008;5.644;2024-03-02T03:26:17;11.00;99.90
45008;DHT22;30743;52.008;5.644;2024-03-02T03:28:43;11.10;99.90
45008;DHT22;30743;52.008;5.644;2024-03-02T03:31:08;10.80;99.90
45008;DHT22;30743;52.008;5.644;2024-03-02T03:33:34;11.00;99.90
45008;DHT22;30743;52.008;5.644;2024-03-02T03:36:00;11.00;99.90
45008;DHT22;30743;52.008;5.644;2024-03-02T03:38:25;10.90;99.90
45008;DHT22;30743;52.008;5.644;2024-03-02T03:40:51;11.00;99.90
45008;DHT22;30743;52.008;5.644;2024-03-02T03:43:17;10.90;99.90
45008;DHT22;30743;52.008;5.644;2024-03-02T03:45:42;11.00;99.90
45008;DHT22;30743;52.008;5.644;2024-03-02T03:48:08;10.80;99.90
45008;DHT22;30743;52.008;5.644;2024-03-02T03:50:34;10.70;99.90
45008;DHT22;30743;52.008;5.644;2024-03-02T03:53:00;10.60;99.90
45008;DHT22;30743;52.008;5.644;2024-03-02T03:55:25;10.50;99.90
45008;DHT22;30743;52.008;5.644;2024-03-02T03:57:51;10.60;99.90
45008;DHT22;30743;52.008;5.644;2024-03-02T04:00:17;10.60;99.90
45008;DHT22;30743;52.008;5.644;2024-03-02T04:02:42;10.70;99.90
45008;DHT22;30743;52.008;5.644;2024-03-02T04:05:08;10.80;99.90
45008;DHT22;30743;52.008;5.644;2024-03-02T04:07:37;10.80;99.90
45008;DHT22;30743;52.008;5.644;2024-03-02T04:10:09;10.70;99.90
45008;DHT22;30743;52.008;5.644;2024-03-02T04:12:38;10.70;99.90
45008;DHT22;30743;52.008;5.644;2024-03-02T04:15:05;10.70;99.90
45008;DHT22;30743;52.008;5.644;2024-03-02T04:17:32;10.70;99.90
45008;DHT22;30743;52.008;5.644;2024-03-02T04:19:58;10.80;99.90
45008;DHT22;30743;52.008;5.644;2024-03-02T04:22:24;10.60;99.90
45008;DHT22;30743;52.008;5.644;2024-03-02T04:24:50;10.60;99.90
45008;DHT22;30743;52.008;5.644;2024-03-02T04:27:15;10.70;99.90
45008;DHT22;30743;52.008;5.644;2024-03-02T04:29:41;10.70;99.90
45008;DHT22;30743;52.008;5.644;2024-03-02T04:32:07;10.60;99.90
45008;DHT22;30743;52.008;5.644;2024-03-02T04:34:32;10.50;99.90
45008;DHT22;30743;52.008;5.644;2024-03-02T04:36:58;10.50;99.90
45008;DHT22;30743;52.008;5.644;2024-03-02T04:39:23;10.50;99.90
45008;DHT22;30743;52.008;5.644;2024-03-02T04:41:50;10.60;99.90
45008;DHT22;30743;52.008;5.644;2024-03-02T04:44:15;10.30;99.90
45008;DHT22;30743;52.008;5.644;2024-03-02T04:46:41;10.30;99.90
45008;DHT22;30743;52.008;5.644;2024-03-02T04:49:06;10.40;99.90
45008;DHT22;30743;52.008;5.644;2024-03-02T04:51:32;10.40;99.90
45008;DHT22;30743;52.008;5.644;2024-03-02T04:53:57;10.20;99.90
45008;DHT22;30743;52.008;5.644;2024-03-02T04:56:23;10.30;99.90
45008;DHT22;30743;52.008;5.644;2024-03-02T04:58:51;10.40;99.90
45008;DHT22;30743;52.008;5.644;2024-03-02T05:01:17;10.60;99.90
45008;DHT22;30743;52.008;5.644;2024-03-02T05:03:42;10.50;99.90
45008;DHT22;30743;52.008;5.644;2024-03-02T05:06:08;10.60;99.90
45008;DHT22;30743;52.008;5.644;2024-03-02T05:08:34;10.70;99.90
45008;DHT22;30743;52.008;5.644;2024-03-02T05:10:59;10.60;99.90
45008;DHT22;30743;52.008;5.644;2024-03-02T05:13:45;10.70;99.90
45008;DHT22;30743;52.008;5.644;2024-03-02T05:16:10;10.70;99.90
45008;DHT22;30743;52.008;5.644;2024-03-02T05:18:37;10.70;99.90
45008;DHT22;30743;52.008;5.644;2024-03-02T05:21:03;10.70;99.90
45008;DHT22;30743;52.008;5.644;2024-03-02T05:23:29;10.70;99.90
45008;DHT22;30743;52.008;5.644;2024-03-02T05:25:54;10.70;99.90
45008;DHT22;30743;52.008;5.644;2024-03-02T05:28:20;10.80;99.90
45008;DHT22;30743;52.008;5.644;2024-03-02T05:30:45;10.90;99.90
45008;DHT22;30743;52.008;5.644;2024-03-02T05:33:11;10.80;99.90
45008;DHT22;30743;52.008;5.644;2024-03-02T05:35:37;10.80;99.90
45008;DHT22;30743;52.008;5.644;2024-03-02T05:38:02;10.70;99.90
45008;DHT22;30743;52.008;5.644;2024-03-02T05:40:28;10.70;99.90
45008;DHT22;30743;52.008;5.644;2024-03-02T05:42:53;10.60;99.90
45008;DHT22;30743;52.008;5.644;2024-03-02T05:45:19;10.50;99.90
45008;DHT22;30743;52.008;5.644;2024-03-02T05:47:44;10.80;99.90
45008;DHT22;30743;52.008;5.644;2024-03-02T05:50:10;10.80;99.90
45008;DHT22;30743;52.008;5.644;2024-03-02T05:52:36;10.80;99.90
45008;DHT22;30743;52.008;5.644;2024-03-02T05:55:01;10.80;99.90
45008;DHT22;30743;52.008;5.644;2024-03-02T05:57:27;10.70;99.90
45008;DHT22;30743;52.008;5.644;2024-03-02T06:00:15;10.60;99.90
45008;DHT22;30743;52.008;5.644;2024-03-02T06:02:42;10.50;99.90
45008;DHT22;30743;52.008;5.644;2024-03-02T06:05:08;10.40;99.90
45008;DHT22;30743;52.008;5.644;2024-03-02T06:07:34;10.50;99.90
45008;DHT22;30743;52.008;5.644;2024-03-02T06:09:59;10.60;99.90
45008;DHT22;30743;52.008;5.644;2024-03-02T06:12:25;10.50;99.90
45008;DHT22;30743;52.008;5.644;2024-03-02T06:14:51;10.50;99.90
45008;DHT22;30743;52.008;5.644;2024-03-02T06:17:16;10.40;99.90
45008;DHT22;30743;52.008;5.644;2024-03-02T06:19:42;10.40;99.90
45008;DHT22;30743;52.008;5.644;2024-03-02T06:22:07;10.60;99.90
45008;DHT22;30743;52.008;5.644;2024-03-02T06:24:36;10.50;99.90
45008;DHT22;30743;52.008;5.644;2024-03-02T06:27:03;10.50;99.90
45008;DHT22;30743;52.008;5.644;2024-03-02T06:29:28;10.30;99.90
45008;DHT22;30743;52.008;5.644;2024-03-02T06:31:54;10.40;99.90
45008;DHT22;30743;52.008;5.644;2024-03-02T06:34:19;10.40;99.90
45008;DHT22;30743;52.008;5.644;2024-03-02T06:36:45;10.60;99.90
45008;DHT22;30743;52.008;5.644;2024-03-02T06:39:10;10.50;99.90
45008;DHT22;30743;52.008;5.644;2024-03-02T06:41:37;10.10;99.90
45008;DHT22;30743;52.008;5.644;2024-03-02T06:44:03;10.00;99.90
45008;DHT22;30743;52.008;5.644;2024-03-02T06:46:29;10.00;99.90
45008;DHT22;30743;52.008;5.644;2024-03-02T06:48:54;10.00;99.90
45008;DHT22;30743;52.008;5.644;2024-03-02T06:51:20;10.20;99.90
45008;DHT22;30743;52.008;5.644;2024-03-02T06:53:46;10.30;99.90
45008;DHT22;30743;52.008;5.644;2024-03-02T06:56:12;10.40;99.90
45008;DHT22;30743;52.008;5.644;2024-03-02T06:58:37;10.50;99.90
45008;DHT22;30743;52.008;5.644;2024-03-02T07:01:03;10.70;99.90
45008;DHT22;30743;52.008;5.644;2024-03-02T07:03:28;10.80;99.90
45008;DHT22;30743;52.008;5.644;2024-03-02T07:05:54;10.70;99.90
45008;DHT22;30743;52.008;5.644;2024-03-02T07:08:19;10.70;99.90
45008;DHT22;30743;52.008;5.644;2024-03-02T07:10:45;10.70;99.90
45008;DHT22;30743;52.008;5.644;2024-03-02T07:13:12;10.70;99.90
45008;DHT22;30743;52.008;5.644;2024-03-02T07:15:38;10.70;99.90
45008;DHT22;30743;52.008;5.644;2024-03-02T07:18:09;10.80;99.90
45008;DHT22;30743;52.008;5.644;2024-03-02T07:20:35;10.80;99.90
45008;DHT22;30743;52.008;5.644;2024-03-02T07:23:00;10.70;99.90
45008;DHT22;30743;52.008;5.644;2024-03-02T07:25:26;10.90;99.90
45008;DHT22;30743;52.008;5.644;2024-03-02T07:27:51;11.20;99.90
45008;DHT22;30743;52.008;5.644;2024-03-02T07:30:18;11.30;99.90
45008;DHT22;30743;52.008;5.644;2024-03-02T07:32:43;11.60;99.90
45008;DHT22;30743;52.008;5.644;2024-03-02T07:35:12;11.60;99.90
45008;DHT22;30743;52.008;5.644;2024-03-02T07:37:38;11.40;99.90
45008;DHT22;30743;52.008;5.644;2024-03-02T07:40:04;11.70;99.90
45008;DHT22;30743;52.008;5.644;2024-03-02T07:42:29;11.80;99.90
45008;DHT22;30743;52.008;5.644;2024-03-02T07:44:55;12.00;99.90
45008;DHT22;30743;52.008;5.644;2024-03-02T07:47:21;12.10;99.90
45008;DHT22;30743;52.008;5.644;2024-03-02T07:49:46;12.40;99.90
45008;DHT22;30743;52.008;5.644;2024-03-02T07:52:12;12.60;99.90
45008;DHT22;30743;52.008;5.644;2024-03-02T07:54:38;13.30;99.90
45008;DHT22;30743;52.008;5.644;2024-03-02T07:57:03;14.00;99.90
45008;DHT22;30743;52.008;5.644;2024-03-02T07:59:29;14.60;99.90
45008;DHT22;30743;52.008;5.644;2024-03-02T08:01:55;14.60;99.90
45008;DHT22;30743;52.008;5.644;2024-03-02T08:04:20;14.70;99.90
45008;DHT22;30743;52.008;5.644;2024-03-02T08:06:46;14.50;99.90
45008;DHT22;30743;52.008;5.644;2024-03-02T08:09:12;14.70;99.90
45008;DHT22;30743;52.008;5.644;2024-03-02T08:11:38;14.30;99.90
45008;DHT22;30743;52.008;5.644;2024-03-02T08:14:04;13.90;99.90
45008;DHT22;30743;52.008;5.644;2024-03-02T08:16:29;14.00;99.90
45008;DHT22;30743;52.008;5.644;2024-03-02T08:18:55;13.80;99.90
45008;DHT22;30743;52.008;5.644;2024-03-02T08:21:23;13.70;99.90
45008;DHT22;30743;52.008;5.644;2024-03-02T08:23:49;13.40;99.90
45008;DHT22;30743;52.008;5.644;2024-03-02T08:26:15;13.30;99.90
45008;DHT22;30743;52.008;5.644;2024-03-02T08:28:41;13.40;99.90
45008;DHT22;30743;52.008;5.644;2024-03-02T08:31:07;13.30;99.90
45008;DHT22;30743;52.008;5.644;2024-03-02T08:33:33;13.30;99.90
45008;DHT22;30743;52.008;5.644;2024-03-02T08:35:59;13.00;99.90
45008;DHT22;30743;52.008;5.644;2024-03-02T08:38:24;12.70;99.90
45008;DHT22;30743;52.008;5.644;2024-03-02T08:40:50;12.90;99.90
45008;DHT22;30743;52.008;5.644;2024-03-02T08:43:16;13.00;99.90
45008;DHT22;30743;52.008;5.644;2024-03-02T08:45:41;13.00;99.90
45008;DHT22;30743;52.008;5.644;2024-03-02T08:48:07;12.60;99.90
45008;DHT22;30743;52.008;5.644;2024-03-02T08:50:36;13.30;99.90
45008;DHT22;30743;52.008;5.644;2024-03-02T08:53:03;13.40;99.90
45008;DHT22;30743;52.008;5.644;2024-03-02T08:55:29;13.70;99.90
45008;DHT22;30743;52.008;5.644;2024-03-02T08:57:55;14.20;99.90
45008;DHT22;30743;52.008;5.644;2024-03-02T09:00:21;14.20;99.90
45008;DHT22;30743;52.008;5.644;2024-03-02T09:02:47;13.80;99.90
45008;DHT22;30743;52.008;5.644;2024-03-02T09:05:13;13.90;99.90
45008;DHT22;30743;52.008;5.644;2024-03-02T09:07:38;14.10;99.90
45008;DHT22;30743;52.008;5.644;2024-03-02T09:10:05;14.10;99.90
45008;DHT22;30743;52.008;5.644;2024-03-02T09:12:31;14.00;99.90
45008;DHT22;30743;52.008;5.644;2024-03-02T09:14:57;14.50;99.90
45008;DHT22;30743;52.008;5.644;2024-03-02T09:17:23;15.00;99.90
45008;DHT22;30743;52.008;5.644;2024-03-02T09:19:48;15.30;99.90
45008;DHT22;30743;52.008;5.644;2024-03-02T09:22:20;16.20;99.90
45008;DHT22;30743;52.008;5.644;2024-03-02T09:24:46;16.70;99.90
45008;DHT22;30743;52.008;5.644;2024-03-02T09:27:12;17.10;99.90
45008;DHT22;30743;52.008;5.644;2024-03-02T09:29:37;17.50;99.90
45008;DHT22;30743;52.008;5.644;2024-03-02T09:32:04;17.40;99.90
45008;DHT22;30743;52.008;5.644;2024-03-02T09:34:31;17.10;99.90
45008;DHT22;30743;52.008;5.644;2024-03-02T09:36:57;17.00;99.90
45008;DHT22;30743;52.008;5.644;2024-03-02T09:39:23;17.10;99.90
45008;DHT22;30743;52.008;5.644;2024-03-02T09:41:48;17.20;99.90
45008;DHT22;30743;52.008;5.644;2024-03-02T09:44:14;18.30;99.90
45008;DHT22;30743;52.008;5.644;2024-03-02T09:46:40;18.40;99.90
45008;DHT22;30743;52.008;5.644;2024-03-02T09:49:06;18.50;99.90
45008;DHT22;30743;52.008;5.644;2024-03-02T09:51:32;18.40;99.90
45008;DHT22;30743;52.008;5.644;2024-03-02T09:53:57;18.70;99.90
45008;DHT22;30743;52.008;5.644;2024-03-02T09:56:26;19.10;99.90
45008;DHT22;30743;52.008;5.644;2024-03-02T09:58:51;18.70;99.90
45008;DHT22;30743;52.008;5.644;2024-03-02T10:01:17;18.50;99.90
45008;DHT22;30743;52.008;5.644;2024-03-02T10:03:44;18.60;99.90
45008;DHT22;30743;52.008;5.644;2024-03-02T10:06:22;19.00;99.90
45008;DHT22;30743;52.008;5.644;2024-03-02T10:08:47;19.30;99.90
45008;DHT22;30743;52.008;5.644;2024-03-02T10:11:33;19.10;99.90
45008;DHT22;30743;52.008;5.644;2024-03-02T10:14:11;19.70;99.90
45008;DHT22;30743;52.008;5.644;2024-03-02T10:16:38;19.70;99.90
45008;DHT22;30743;52.008;5.644;2024-03-02T10:19:23;19.70;99.90
45008;DHT22;30743;52.008;5.644;2024-03-02T10:21:50;19.90;99.90
45008;DHT22;30743;52.008;5.644;2024-03-02T10:24:20;19.50;99.90
45008;DHT22;30743;52.008;5.644;2024-03-02T10:26:46;19.50;99.90
45008;DHT22;30743;52.008;5.644;2024-03-02T10:29:13;19.60;99.90
45008;DHT22;30743;52.008;5.644;2024-03-02T10:31:40;19.20;99.90
45008;DHT22;30743;52.008;5.644;2024-03-02T10:34:06;18.90;99.90
45008;DHT22;30743;52.008;5.644;2024-03-02T10:36:33;18.90;99.90
45008;DHT22;30743;52.008;5.644;2024-03-02T10:39:05;19.20;99.90
45008;DHT22;30743;52.008;5.644;2024-03-02T10:41:37;19.00;99.90
45008;DHT22;30743;52.008;5.644;2024-03-02T10:44:05;19.70;99.90
45008;DHT22;30743;52.008;5.644;2024-03-02T10:46:32;19.70;99.90
45008;DHT22;30743;52.008;5.644;2024-03-02T10:48:59;19.40;99.90
45008;DHT22;30743;52.008;5.644;2024-03-02T10:51:26;19.40;99.90
45008;DHT22;30743;52.008;5.644;2024-03-02T10:53:53;19.40;99.90
45008;DHT22;30743;52.008;5.644;2024-03-02T10:56:47;19.30;99.90
45008;DHT22;30743;52.008;5.644;2024-03-02T10:59:26;19.70;99.90
45008;DHT22;30743;52.008;5.644;2024-03-02T11:01:57;20.10;99.90
45008;DHT22;30743;52.008;5.644;2024-03-02T11:04:25;20.20;99.90
45008;DHT22;30743;52.008;5.644;2024-03-02T11:06:51;20.20;99.90
45008;DHT22;30743;52.008;5.644;2024-03-02T11:09:22;20.10;99.90
45008;DHT22;30743;52.008;5.644;2024-03-02T11:12:59;20.20;99.90
45008;DHT22;30743;52.008;5.644;2024-03-02T11:14:51;20.20;99.90
45008;DHT22;30743;52.008;5.644;2024-03-02T11:17:20;20.00;99.90
45008;DHT22;30743;52.008;5.644;2024-03-02T11:19:47;20.10;99.90
45008;DHT22;30743;52.008;5.644;2024-03-02T11:22:13;20.80;99.90
45008;DHT22;30743;52.008;5.644;2024-03-02T11:24:50;21.30;99.90
45008;DHT22;30743;52.008;5.644;2024-03-02T11:32:57;21.70;99.90
45008;DHT22;30743;52.008;5.644;2024-03-02T11:35:25;21.50;99.90
45008;DHT22;30743;52.008;5.644;2024-03-02T11:37:52;21.50;99.90
45008;DHT22;30743;52.008;5.644;2024-03-02T11:40:24;21.60;99.90
45008;DHT22;30743;52.008;5.644;2024-03-02T11:42:51;21.40;99.90
45008;DHT22;30743;52.008;5.644;2024-03-02T11:45:17;21.50;99.90
45008;DHT22;30743;52.008;5.644;2024-03-02T11:47:49;21.40;99.90
45008;DHT22;30743;52.008;5.644;2024-03-02T11:50:15;21.50;99.90
45008;DHT22;30743;52.008;5.644;2024-03-02T11:52:42;21.80;99.90
45008;DHT22;30743;52.008;5.644;2024-03-02T11:55:09;21.60;99.90
45008;DHT22;30743;52.008;5.644;2024-03-02T11:57:37;22.00;99.90
45008;DHT22;30743;52.008;5.644;2024-03-02T12:00:03;22.10;99.90
45008;DHT22;30743;52.008;5.644;2024-03-02T12:02:29;22.00;99.90
45008;DHT22;30743;52.008;5.644;2024-03-02T12:04:55;22.00;99.20
45008;DHT22;30743;52.008;5.644;2024-03-02T12:07:23;21.80;98.90
45008;DHT22;30743;52.008;5.644;2024-03-02T12:09:58;21.60;99.80
45008;DHT22;30743;52.008;5.644;2024-03-02T12:12:24;21.90;99.40
45008;DHT22;30743;52.008;5.644;2024-03-02T12:14:52;21.70;99.60
45008;DHT22;30743;52.008;5.644;2024-03-02T12:17:20;22.10;99.60
45008;DHT22;30743;52.008;5.644;2024-03-02T12:19:46;22.10;99.60
45008;DHT22;30743;52.008;5.644;2024-03-02T12:22:12;21.60;99.90
45008;DHT22;30743;52.008;5.644;2024-03-02T12:24:37;20.60;99.90
45008;DHT22;30743;52.008;5.644;2024-03-02T12:27:05;19.60;99.90
45008;DHT22;30743;52.008;5.644;2024-03-02T12:29:30;18.70;99.90
45008;DHT22;30743;52.008;5.644;2024-03-02T12:31:56;18.60;99.90
45008;DHT22;30743;52.008;5.644;2024-03-02T12:34:22;18.40;99.90
45008;DHT22;30743;52.008;5.644;2024-03-02T12:36:49;18.50;99.90
45008;DHT22;30743;52.008;5.644;2024-03-02T12:39:18;18.70;99.90
45008;DHT22;30743;52.008;5.644;2024-03-02T12:41:45;19.40;99.90
45008;DHT22;30743;52.008;5.644;2024-03-02T12:44:11;19.80;99.90
45008;DHT22;30743;52.008;5.644;2024-03-02T12:46:37;19.80;99.90
45008;DHT22;30743;52.008;5.644;2024-03-02T12:49:13;20.10;99.90
45008;DHT22;30743;52.008;5.644;2024-03-02T12:51:40;20.10;99.90
45008;DHT22;30743;52.008;5.644;2024-03-02T12:54:07;19.30;99.90
45008;DHT22;30743;52.008;5.644;2024-03-02T12:56:33;19.30;99.90
45008;DHT22;30743;52.008;5.644;2024-03-02T12:58:59;19.10;99.90
45008;DHT22;30743;52.008;5.644;2024-03-02T13:01:25;19.20;99.90
45008;DHT22;30743;52.008;5.644;2024-03-02T13:03:52;19.40;99.90
45008;DHT22;30743;52.008;5.644;2024-03-02T13:06:18;19.90;99.90
45008;DHT22;30743;52.008;5.644;2024-03-02T13:08:45;20.00;99.90
45008;DHT22;30743;52.008;5.644;2024-03-02T13:11:11;19.80;99.90
45008;DHT22;30743;52.008;5.644;2024-03-02T13:13:37;19.90;99.90
45008;DHT22;30743;52.008;5.644;2024-03-02T13:16:07;20.10;99.90
45008;DHT22;30743;52.008;5.644;2024-03-02T13:18:33;20.40;99.90
45008;DHT22;30743;52.008;5.644;2024-03-02T13:20:59;21.00;99.90
45008;DHT22;30743;52.008;5.644;2024-03-02T13:23:24;21.20;99.90
45008;DHT22;30743;52.008;5.644;2024-03-02T13:25:50;21.60;99.90
45008;DHT22;30743;52.008;5.644;2024-03-02T13:28:16;22.30;99.90
45008;DHT22;30743;52.008;5.644;2024-03-02T13:30:42;22.60;99.90
45008;DHT22;30743;52.008;5.644;2024-03-02T13:33:07;22.30;99.90
45008;DHT22;30743;52.008;5.644;2024-03-02T13:35:33;22.70;99.90
45008;DHT22;30743;52.008;5.644;2024-03-02T13:37:58;23.10;99.50
45008;DHT22;30743;52.008;5.644;2024-03-02T13:40:24;23.30;98.90
45008;DHT22;30743;52.008;5.644;2024-03-02T13:42:50;23.30;99.20
45008;DHT22;30743;52.008;5.644;2024-03-02T13:45:17;23.00;99.00
45008;DHT22;30743;52.008;5.644;2024-03-02T13:47:43;22.70;99.00
45008;DHT22;30743;52.008;5.644;2024-03-02T13:50:09;22.70;98.50
45008;DHT22;30743;52.008;5.644;2024-03-02T13:52:35;23.00;98.40
45008;DHT22;30743;52.008;5.644;2024-03-02T13:55:01;22.90;99.20
45008;DHT22;30743;52.008;5.644;2024-03-02T13:57:26;22.60;99.10
45008;DHT22;30743;52.008;5.644;2024-03-02T13:59:52;22.80;98.80
45008;DHT22;30743;52.008;5.644;2024-03-02T14:02:18;22.90;98.90
45008;DHT22;30743;52.008;5.644;2024-03-02T14:04:43;23.00;99.40
45008;DHT22;30743;52.008;5.644;2024-03-02T14:07:09;23.30;98.80
45008;DHT22;30743;52.008;5.644;2024-03-02T14:09:38;22.00;98.40
45008;DHT22;30743;52.008;5.644;2024-03-02T14:12:04;21.50;99.90
45008;DHT22;30743;52.008;5.644;2024-03-02T14:14:30;21.60;99.90
45008;DHT22;30743;52.008;5.644;2024-03-02T14:16:56;22.30;99.90
45008;DHT22;30743;52.008;5.644;2024-03-02T14:19:21;23.30;99.80
45008;DHT22;30743;52.008;5.644;2024-03-02T14:21:47;24.40;98.60
45008;DHT22;30743;52.008;5.644;2024-03-02T14:24:13;25.40;96.90
45008;DHT22;30743;52.008;5.644;2024-03-02T14:26:39;25.40;96.90
45008;DHT22;30743;52.008;5.644;2024-03-02T14:29:06;26.00;95.70
45008;DHT22;30743;52.008;5.644;2024-03-02T14:31:32;26.10;95.80
45008;DHT22;30743;52.008;5.644;2024-03-02T14:33:57;26.00;94.30
45008;DHT22;30743;52.008;5.644;2024-03-02T14:36:23;25.40;94.30
45008;DHT22;30743;52.008;5.644;2024-03-02T14:38:49;24.90;96.30
45008;DHT22;30743;52.008;5.644;2024-03-02T14:41:15;24.70;95.50
45008;DHT22;30743;52.008;5.644;2024-03-02T14:43:40;24.60;96.50
45008;DHT22;30743;52.008;5.644;2024-03-02T14:46:06;24.90;96.00
45008;DHT22;30743;52.008;5.644;2024-03-02T14:48:35;24.40;94.90
45008;DHT22;30743;52.008;5.644;2024-03-02T14:51:00;24.20;95.10
45008;DHT22;30743;52.008;5.644;2024-03-02T14:53:27;24.30;95.00
45008;DHT22;30743;52.008;5.644;2024-03-02T14:55:53;24.60;94.70
45008;DHT22;30743;52.008;5.644;2024-03-02T14:58:19;24.60;95.20
45008;DHT22;30743;52.008;5.644;2024-03-02T15:00:45;24.70;94.70
45008;DHT22;30743;52.008;5.644;2024-03-02T15:03:10;24.70;94.50
45008;DHT22;30743;52.008;5.644;2024-03-02T15:05:37;24.10;94.60
45008;DHT22;30743;52.008;5.644;2024-03-02T15:08:03;23.70;96.00
45008;DHT22;30743;52.008;5.644;2024-03-02T15:10:30;23.10;95.80
45008;DHT22;30743;52.008;5.644;2024-03-02T15:12:56;22.70;95.60
45008;DHT22;30743;52.008;5.644;2024-03-02T15:15:22;22.40;97.10
45008;DHT22;30743;52.008;5.644;2024-03-02T15:17:48;22.30;97.60
45008;DHT22;30743;52.008;5.644;2024-03-02T15:20:13;22.20;97.10
45008;DHT22;30743;52.008;5.644;2024-03-02T15:22:39;22.10;97.50
45008;DHT22;30743;52.008;5.644;2024-03-02T15:25:05;22.00;97.70
45008;DHT22;30743;52.008;5.644;2024-03-02T15:27:31;22.10;97.50
45008;DHT22;30743;52.008;5.644;2024-03-02T15:29:56;22.30;97.20
45008;DHT22;30743;52.008;5.644;2024-03-02T15:32:23;22.30;97.20
45008;DHT22;30743;52.008;5.644;2024-03-02T15:34:48;22.00;97.60
45008;DHT22;30743;52.008;5.644;2024-03-02T15:37:14;21.30;98.60